Time;durP1;ratioP1;P1;durP2;ratioP2;P2;SDS_P1;SDS_P2;PMS_P1;PMS_P2;Temp;Humidity;BMP_temperature;BMP_pressure;BME280_temperature;BME280_humidity;BME280_pressure;Samples;Min_cycle;Max_cycle;Signal;HPM_P1;HPM_P2
2022/05/05 00:01:34;;;;;;;12.10;8.25;;;;;;;11.75;94.51;98364.11;1611425;87;28042;-83
2022/05/05 00:04:01;;;;;;;15.35;9.40;;;;;;;11.81;94.95;98365.44;1617952;87;28097;-82
2022/05/05 00:06:28;;;;;;;11.97;8.60;;;;;;;11.83;95.20;98369.63;1611407;87;28121;-84
2022/05/05 00:08:54;;;;;;;11.68;8.20;;;;;;;11.87;95.44;98371.05;1612495;88;28231;-84
2022/05/05 00:14:25;;;;;;;10.65;9.05;;;;;;;11.94;95.95;98376.20;1613700;86;28061;-84
2022/05/05 00:16:57;;;;;;;11.33;8.18;;;;;;;12.00;96.25;98370.97;1606135;88;28028;-84
2022/05/05 00:19:24;;;;;;;10.72;8.10;;;;;;;11.96;96.41;98369.03;1611462;88;28179;-84
2022/05/05 00:21:52;;;;;;;10.88;8.53;;;;;;;11.90;96.47;98366.88;1637569;87;28096;-85
2022/05/05 00:24:18;;;;;;;12.05;8.25;;;;;;;11.87;96.64;98364.97;1610240;87;28190;-82
2022/05/05 00:26:48;;;;;;;10.58;8.00;;;;;;;11.90;96.94;98360.31;1608970;87;28182;-84
2022/05/05 00:29:15;;;;;;;11.48;7.92;;;;;;;11.84;97.07;98356.84;1642553;85;28128;-84
2022/05/05 00:31:43;;;;;;;10.85;8.30;;;;;;;11.78;97.23;98356.03;1609541;88;28081;-83
2022/05/05 00:34:10;;;;;;;11.48;7.75;;;;;;;11.73;97.38;98367.31;1609779;88;28375;-85
2022/05/05 00:36:36;;;;;;;9.58;7.55;;;;;;;11.68;97.53;98364.17;1610309;86;28198;-85
2022/05/05 00:39:04;;;;;;;11.33;7.03;;;;;;;11.54;97.70;98357.36;1610609;86;28115;-85
2022/05/05 00:41:43;;;;;;;8.20;6.45;;;;;;;11.43;97.86;98357.33;1608850;88;28006;-85
2022/05/05 00:44:10;;;;;;;9.43;6.87;;;;;;;11.30;98.05;98351.31;1605599;87;28014;-83
2022/05/05 00:46:37;;;;;;;10.80;7.47;;;;;;;11.24;98.32;98358.31;1610334;88;28073;-82
2022/05/05 00:49:05;;;;;;;8.63;7.03;;;;;;;11.13;98.54;98351.72;1636669;87;28100;-82
2022/05/05 00:51:34;;;;;;;9.18;7.45;;;;;;;11.05;98.81;98349.67;1609647;86;28115;-82
2022/05/05 00:54:00;;;;;;;8.73;7.08;;;;;;;11.06;99.19;98360.98;1610084;88;28155;-83
2022/05/05 00:56:29;;;;;;;10.32;7.03;;;;;;;11.20;99.82;98349.86;1608187;88;28101;-82
2022/05/05 00:58:57;;;;;;;8.68;6.60;;;;;;;11.20;100.00;98353.78;1609667;88;28206;-82
2022/05/05 01:01:24;;;;;;;9.98;7.10;;;;;;;11.16;100.00;98352.81;1609656;88;28181;-82
2022/05/05 01:03:51;;;;;;;10.03;6.67;;;;;;;11.12;100.00;98354.84;1609280;88;28156;-82
2022/05/05 01:06:17;;;;;;;11.20;8.40;;;;;;;11.18;100.00;98356.98;1611026;87;28105;-82
2022/05/05 01:08:45;;;;;;;14.70;9.63;;;;;;;11.23;100.00;98358.81;1613309;87;28168;-83
2022/05/05 01:11:13;;;;;;;15.05;8.98;;;;;;;11.18;100.00;98358.29;1612281;87;28052;-83
2022/05/05 01:13:43;;;;;;;11.93;8.78;;;;;;;11.06;100.00;98365.76;1615306;86;28118;-83
2022/05/05 01:16:11;;;;;;;11.53;8.20;;;;;;;10.98;100.00;98362.84;1613590;88;28026;-83
2022/05/05 01:18:38;;;;;;;13.53;8.90;;;;;;;10.93;100.00;98358.42;1632244;86;28102;-83
2022/05/05 01:21:09;;;;;;;15.63;9.25;;;;;;;10.87;100.00;98354.45;1630321;87;28092;-82
2022/05/05 01:23:36;;;;;;;13.65;8.80;;;;;;;10.90;100.00;98359.49;1620569;87;28122;-82
2022/05/05 01:28:48;;;;;;;10.85;7.22;;;;;;;10.96;100.00;98367.38;1620222;87;28078;-83
2022/05/05 01:31:14;;;;;;;10.48;7.72;;;;;;;10.95;100.00;98363.08;1636559;87;28172;-83
2022/05/05 01:33:41;;;;;;;12.25;8.45;;;;;;;11.01;100.00;98361.33;1640557;86;28155;-83
2022/05/05 01:36:07;;;;;;;10.85;7.97;;;;;;;11.06;100.00;98363.61;1621458;87;28076;-83
2022/05/05 01:38:37;;;;;;;9.70;7.83;;;;;;;11.11;100.00;98360.18;1644996;85;28130;-82
2022/05/05 01:41:08;;;;;;;11.15;8.35;;;;;;;11.11;100.00;98353.63;1642314;86;28101;-83
2022/05/05 01:43:36;;;;;;;12.53;8.65;;;;;;;11.04;100.00;98353.23;1640104;85;28130;-83
2022/05/05 01:46:03;;;;;;;15.08;8.70;;;;;;;10.96;100.00;98349.05;1622191;87;28018;-83
2022/05/05 01:48:32;;;;;;;9.60;7.12;;;;;;;10.99;100.00;98356.67;1623732;87;28092;-83
2022/05/05 01:51:07;;;;;;;10.40;8.08;;;;;;;11.02;100.00;98360.86;1624069;87;28065;-83
2022/05/05 01:53:37;;;;;;;11.48;8.73;;;;;;;10.99;100.00;98357.98;1641584;86;28230;-83
2022/05/05 01:56:11;;;;;;;11.93;8.60;;;;;;;10.74;100.00;98337.98;1642818;86;28157;-83
2022/05/05 01:58:39;;;;;;;12.63;8.50;;;;;;;10.69;100.00;98355.77;1613076;87;28045;-82
2022/05/05 02:01:12;;;;;;;13.20;8.30;;;;;;;10.60;100.00;98351.67;1612154;87;28087;-83
2022/05/05 02:03:41;;;;;;;12.73;8.83;;;;;;;10.65;100.00;98353.02;1611116;87;28086;-83
2022/05/05 02:06:08;;;;;;;11.70;8.68;;;;;;;10.69;100.00;98351.04;1613663;87;28116;-83
2022/05/05 02:08:38;;;;;;;12.95;8.68;;;;;;;10.81;100.00;98360.60;1616157;87;28082;-83
2022/05/05 02:11:05;;;;;;;10.38;8.45;;;;;;;10.85;100.00;98363.39;1628399;87;28169;-83
2022/05/05 02:13:31;;;;;;;9.35;7.42;;;;;;;10.78;100.00;98356.91;1626758;86;28087;-83
2022/05/05 02:15:58;;;;;;;11.63;9.30;;;;;;;10.71;100.00;98362.22;1627441;87;28119;-83
2022/05/05 02:18:24;;;;;;;13.13;9.60;;;;;;;10.63;100.00;98368.48;1627582;87;42432;-83
2022/05/05 02:20:50;;;;;;;14.63;9.23;;;;;;;10.58;100.00;98366.66;1626891;85;28159;-83
2022/05/05 02:23:17;;;;;;;12.28;8.93;;;;;;;10.56;100.00;98362.84;1629267;87;28020;-83
2022/05/05 02:25:43;;;;;;;11.48;8.78;;;;;;;10.60;100.00;98373.91;1630768;87;28100;-82
2022/05/05 02:28:10;;;;;;;14.03;8.90;;;;;;;10.68;100.00;98367.21;1626045;86;28051;-82
2022/05/05 02:30:37;;;;;;;13.58;8.33;;;;;;;10.81;100.00;98368.45;1627638;87;28131;-82
2022/05/05 02:33:03;;;;;;;9.70;8.00;;;;;;;10.86;100.00;98368.48;1626470;86;28129;-82
2022/05/05 02:35:30;;;;;;;13.60;8.48;;;;;;;10.88;100.00;98367.08;1632288;85;28021;-82
2022/05/05 02:40:41;;;;;;;9.28;7.62;;;;;;;11.01;100.00;98370.50;1628116;87;28068;-83
2022/05/05 02:43:12;;;;;;;10.95;7.58;;;;;;;11.03;100.00;98375.13;1626869;87;28029;-83
2022/05/05 02:45:38;;;;;;;9.60;7.60;;;;;;;10.95;100.00;98375.33;1626669;87;28105;-83
2022/05/05 02:48:05;;;;;;;9.65;7.67;;;;;;;10.88;100.00;98374.46;1628314;86;28092;-83
2022/05/05 02:50:33;;;;;;;8.90;7.55;;;;;;;10.94;100.00;98375.80;1626877;87;28096;-83
2022/05/05 02:53:00;;;;;;;10.15;8.03;;;;;;;10.94;100.00;98379.73;1628274;87;28119;-83
2022/05/05 02:55:27;;;;;;;10.05;7.40;;;;;;;11.02;100.00;98380.00;1626231;87;28118;-83
2022/05/05 02:57:53;;;;;;;10.15;7.55;;;;;;;11.08;100.00;98374.79;1625927;87;28489;-84
2022/05/05 03:00:20;;;;;;;10.03;7.70;;;;;;;11.19;100.00;98375.68;1624489;87;29013;-83
2022/05/05 03:02:50;;;;;;;10.65;7.12;;;;;;;11.29;100.00;98373.25;1630081;87;28123;-83
2022/05/05 03:05:16;;;;;;;11.88;7.05;;;;;;;11.32;100.00;98376.47;1627349;87;28181;-83
2022/05/05 03:07:44;;;;;;;6.97;5.85;;;;;;;11.41;100.00;98375.41;1628464;86;28205;-84
2022/05/05 03:10:11;;;;;;;7.30;5.95;;;;;;;11.46;100.00;98381.98;1626741;87;28016;-84
2022/05/05 03:12:38;;;;;;;7.67;5.87;;;;;;;11.42;100.00;98382.33;1622822;87;28100;-84
2022/05/05 03:15:06;;;;;;;8.83;6.28;;;;;;;11.26;100.00;98384.77;1619292;87;28171;-84
2022/05/05 03:17:33;;;;;;;10.43;8.00;;;;;;;11.10;100.00;98380.30;1620778;87;28081;-84
2022/05/05 03:19:59;;;;;;;10.78;7.97;;;;;;;11.00;100.00;98388.93;1621787;87;28218;-84
2022/05/05 03:22:27;;;;;;;10.20;7.90;;;;;;;10.91;100.00;98390.41;1620677;87;28107;-83
2022/05/05 03:24:55;;;;;;;15.20;7.78;;;;;;;10.80;100.00;98387.75;1620282;87;28057;-84
2022/05/05 03:27:25;;;;;;;11.68;7.45;;;;;;;10.65;100.00;98387.51;1618978;87;28096;-84
2022/05/05 03:29:51;;;;;;;8.55;7.35;;;;;;;10.56;100.00;98385.55;1622607;87;28081;-84
2022/05/05 03:32:17;;;;;;;10.95;7.60;;;;;;;10.55;100.00;98386.48;1619627;87;28087;-83
2022/05/05 03:34:44;;;;;;;11.73;7.08;;;;;;;10.48;100.00;98384.30;1621055;87;28162;-83
2022/05/05 03:37:10;;;;;;;11.12;7.42;;;;;;;10.42;100.00;98387.34;1619021;87;28210;-83
2022/05/05 03:39:37;;;;;;;9.50;7.37;;;;;;;10.46;100.00;98391.91;1620912;86;28467;-83
2022/05/05 03:42:04;;;;;;;9.50;7.47;;;;;;;10.47;100.00;98398.32;1619324;88;28072;-83
2022/05/05 03:44:30;;;;;;;10.03;6.85;;;;;;;10.63;100.00;98401.20;1619655;88;28121;-83
2022/05/05 03:46:56;;;;;;;11.03;7.47;;;;;;;10.82;100.00;98395.84;1619436;87;28073;-82
2022/05/05 03:49:22;;;;;;;8.45;6.42;;;;;;;10.99;100.00;98399.87;1621062;87;28006;-82
2022/05/05 03:51:50;;;;;;;8.58;6.53;;;;;;;11.14;100.00;98403.16;1621224;87;28089;-82
2022/05/05 03:54:18;;;;;;;7.87;6.42;;;;;;;11.24;100.00;98403.69;1618124;87;28093;-83
2022/05/05 03:56:44;;;;;;;8.13;6.20;;;;;;;11.32;100.00;98403.97;1623303;86;28211;-82
2022/05/05 03:59:10;;;;;;;10.63;6.35;;;;;;;11.38;100.00;98399.23;1621863;87;28085;-82
2022/05/05 04:01:37;;;;;;;8.63;6.28;;;;;;;11.33;100.00;98405.66;1621737;87;28053;-82
2022/05/05 04:04:03;;;;;;;8.70;6.17;;;;;;;11.27;100.00;98407.41;1620034;88;28104;-82
2022/05/05 04:06:29;;;;;;;8.00;6.25;;;;;;;11.23;100.00;98415.61;1622386;86;28060;-82
2022/05/05 04:08:56;;;;;;;8.00;6.40;;;;;;;11.25;100.00;98414.53;1627477;88;28134;-82
2022/05/05 04:11:22;;;;;;;8.80;6.15;;;;;;;11.38;100.00;98414.95;1625787;86;28092;-82
2022/05/05 04:13:48;;;;;;;7.87;5.37;;;;;;;11.51;100.00;98417.85;1627341;88;28091;-82
2022/05/05 04:16:14;;;;;;;8.30;6.42;;;;;;;11.62;100.00;98422.30;1627510;86;28144;-82
2022/05/05 04:18:40;;;;;;;8.15;6.17;;;;;;;11.71;100.00;98422.95;1627359;88;28107;-82
2022/05/05 04:21:08;;;;;;;8.00;5.95;;;;;;;11.76;100.00;98422.63;1627980;86;28088;-82
2022/05/05 04:23:34;;;;;;;10.05;6.37;;;;;;;11.74;100.00;98423.57;1627637;87;28109;-82
2022/05/05 04:26:01;;;;;;;11.97;5.60;;;;;;;11.76;100.00;98428.71;1627619;87;28057;-83
2022/05/05 04:28:27;;;;;;;15.85;6.42;;;;;;;11.79;100.00;98428.94;1627551;88;28139;-83
2022/05/05 04:30:54;;;;;;;7.47;6.62;;;;;;;11.80;100.00;98426.69;1627161;86;28285;-82
2022/05/05 04:33:20;;;;;;;9.08;7.45;;;;;;;11.75;100.00;98421.79;1628078;86;28057;-82
2022/05/05 04:35:47;;;;;;;10.72;8.20;;;;;;;11.72;100.00;98420.22;1627549;88;28053;-82
2022/05/05 04:38:13;;;;;;;8.95;6.80;;;;;;;11.71;100.00;98426.41;1628486;87;28077;-82
2022/05/05 04:40:40;;;;;;;9.85;7.25;;;;;;;11.81;100.00;98427.05;1627868;87;28103;-83
2022/05/05 04:43:07;;;;;;;9.85;7.78;;;;;;;11.98;100.00;98423.53;1627473;86;28189;-83
2022/05/05 04:45:34;;;;;;;10.35;6.78;;;;;;;12.04;100.00;98430.94;1627687;88;28095;-83
2022/05/05 04:48:00;;;;;;;14.28;7.17;;;;;;;12.12;100.00;98431.64;1627719;86;28159;-82
2022/05/05 04:50:33;;;;;;;10.98;7.40;;;;;;;12.23;100.00;98430.83;1627625;86;28076;-83
2022/05/05 04:52:59;;;;;;;6.28;5.20;;;;;;;12.28;100.00;98431.30;1628512;87;28115;-83
2022/05/05 04:55:25;;;;;;;7.75;4.90;;;;;;;12.35;100.00;98428.58;1627617;88;28110;-83
2022/05/05 04:57:52;;;;;;;5.95;4.47;;;;;;;12.46;100.00;98432.52;1627615;88;28210;-83
2022/05/05 05:00:18;;;;;;;6.72;4.17;;;;;;;12.59;100.00;98429.31;1627778;88;28049;-83
2022/05/05 05:02:45;;;;;;;8.23;4.42;;;;;;;12.71;100.00;98428.84;1627613;88;28121;-83
2022/05/05 05:05:11;;;;;;;7.25;4.58;;;;;;;12.82;100.00;98430.95;1626648;87;28085;-83
2022/05/05 05:07:41;;;;;;;5.78;4.47;;;;;;;12.92;100.00;98424.03;1620876;86;28114;-83
2022/05/05 05:10:08;;;;;;;4.95;4.35;;;;;;;13.03;100.00;98431.06;1619486;87;28010;-83
2022/05/05 05:12:36;;;;;;;7.85;4.15;;;;;;;13.14;100.00;98430.23;1624258;87;28185;-83
2022/05/05 05:15:02;;;;;;;8.15;4.87;;;;;;;13.21;100.00;98433.54;1618689;87;28168;-82
2022/05/05 05:17:30;;;;;;;5.28;3.87;;;;;;;13.27;100.00;98429.58;1625772;87;28384;-82
2022/05/05 05:19:56;;;;;;;6.42;4.47;;;;;;;13.34;100.00;98432.92;1624092;87;28112;-82
2022/05/05 05:22:22;;;;;;;7.00;4.08;;;;;;;13.44;100.00;98435.62;1619670;86;28075;-82
2022/05/05 05:24:49;;;;;;;5.40;3.87;;;;;;;13.49;100.00;98432.14;1619665;87;28090;-83
2022/05/05 05:27:15;;;;;;;4.70;3.58;;;;;;;13.57;100.00;98424.95;1624319;87;28082;-83
2022/05/05 05:29:42;;;;;;;5.22;3.17;;;;;;;13.66;100.00;98426.34;1622668;87;28030;-83
2022/05/05 05:32:09;;;;;;;4.75;3.02;;;;;;;13.76;100.00;98432.50;1626537;87;28071;-83
2022/05/05 05:34:35;;;;;;;4.92;3.52;;;;;;;13.89;100.00;98434.12;1621663;87;28084;-83
2022/05/05 05:37:03;;;;;;;3.62;3.10;;;;;;;14.00;100.00;98435.38;1625630;87;28180;-83
2022/05/05 05:39:35;;;;;;;4.60;3.58;;;;;;;14.08;100.00;98438.19;1619052;87;28027;-83
2022/05/05 05:42:02;;;;;;;4.85;3.52;;;;;;;14.10;100.00;98437.11;1627589;87;28197;-83
2022/05/05 05:44:28;;;;;;;5.05;3.37;;;;;;;14.15;100.00;98436.23;1618552;87;28112;-83
2022/05/05 05:46:54;;;;;;;4.87;3.60;;;;;;;14.16;100.00;98435.27;1623781;87;28218;-83
2022/05/05 05:49:21;;;;;;;4.55;3.37;;;;;;;14.21;100.00;98437.52;1619122;86;28030;-83
2022/05/05 05:51:47;;;;;;;5.58;4.00;;;;;;;14.25;100.00;98436.28;1617377;87;28110;-83
2022/05/05 05:54:17;;;;;;;6.15;4.20;;;;;;;14.29;100.00;98437.72;1607613;87;28005;-83
2022/05/05 05:56:43;;;;;;;7.83;4.20;;;;;;;14.34;100.00;98438.16;1626083;85;28033;-83
2022/05/05 05:59:09;;;;;;;4.58;3.60;;;;;;;14.43;100.00;98436.08;1623486;87;28379;-83
2022/05/05 06:04:20;;;;;;;5.22;4.28;;;;;;;14.59;100.00;98442.17;1621565;87;28103;-83
2022/05/05 06:06:47;;;;;;;4.95;4.10;;;;;;;14.70;100.00;98446.52;1627632;86;28154;-83
2022/05/05 06:09:15;;;;;;;5.20;3.58;;;;;;;14.76;100.00;98448.14;1628878;87;28100;-83
2022/05/05 06:11:43;;;;;;;4.53;3.58;;;;;;;14.89;100.00;98453.19;1629487;86;28001;-83
2022/05/05 06:14:10;;;;;;;4.33;3.50;;;;;;;15.00;100.00;98447.82;1628195;87;28085;-82
2022/05/05 06:16:36;;;;;;;5.25;4.22;;;;;;;15.11;100.00;98453.47;1626576;87;28104;-83
2022/05/05 06:19:03;;;;;;;6.10;4.20;;;;;;;15.20;100.00;98451.33;1628725;86;28094;-83
2022/05/05 06:21:29;;;;;;;5.58;3.92;;;;;;;15.27;100.00;98454.61;1612473;88;28056;-83
2022/05/05 06:23:55;;;;;;;5.85;3.20;;;;;;;15.35;100.00;98455.23;1616847;86;28129;-83
2022/05/05 06:26:23;;;;;;;6.60;3.40;;;;;;;15.44;100.00;98457.05;1612668;88;28112;-83
2022/05/05 06:28:50;;;;;;;4.67;2.95;;;;;;;15.56;100.00;98457.78;1611934;88;28062;-83
2022/05/05 06:31:17;;;;;;;3.50;2.77;;;;;;;15.70;100.00;98459.55;1611907;87;28178;-83
2022/05/05 06:33:43;;;;;;;3.12;2.35;;;;;;;15.80;100.00;98462.19;1626610;87;28038;-83
2022/05/05 06:36:12;;;;;;;3.50;2.98;;;;;;;15.87;100.00;98461.98;1626435;87;28183;-83
2022/05/05 06:38:39;;;;;;;5.40;2.87;;;;;;;15.90;100.00;98463.01;1611844;88;28116;-84
2022/05/05 06:41:05;;;;;;;4.30;3.12;;;;;;;15.96;100.00;98469.05;1625153;87;28168;-83
2022/05/05 06:43:31;;;;;;;6.08;3.60;;;;;;;15.97;100.00;98466.77;1628636;87;28028;-83
2022/05/05 06:45:57;;;;;;;5.33;4.03;;;;;;;15.97;100.00;98470.73;1628254;87;28093;-83
2022/05/05 06:48:31;;;;;;;9.08;4.28;;;;;;;15.97;100.00;98469.41;1626800;87;28197;-83
2022/05/05 06:51:02;;;;;;;4.65;3.25;;;;;;;16.02;100.00;98470.30;1627774;87;28104;-83
2022/05/05 06:53:28;;;;;;;2.50;2.30;;;;;;;15.96;100.00;98469.05;1628005;87;28075;-83
2022/05/05 06:55:56;;;;;;;3.27;2.50;;;;;;;15.92;100.00;98467.67;1628530;87;28207;-83
2022/05/05 06:58:23;;;;;;;2.80;2.30;;;;;;;15.93;100.00;98470.63;1628431;87;28123;-83
2022/05/05 07:03:34;;;;;;;3.83;3.00;;;;;;;16.07;100.00;98475.99;1630175;86;28526;-84
2022/05/05 07:06:01;;;;;;;3.75;2.62;;;;;;;16.15;100.00;98480.91;1631952;86;28155;-83
2022/05/05 07:10:52;;;;;;;3.62;2.72;;;;;;;16.20;100.00;98477.34;1625810;86;28175;-83
2022/05/05 07:10:57;;;;;;;3.40;2.27;;;;;;;16.25;100.00;98474.31;1623410;87;28189;-83
2022/05/05 07:13:25;;;;;;;4.03;2.75;;;;;;;16.30;100.00;98483.47;1640246;87;28075;-83
2022/05/05 07:15:52;;;;;;;3.92;2.47;;;;;;;16.28;100.00;98485.41;1611864;88;28411;-83
2022/05/05 07:18:19;;;;;;;4.50;2.42;;;;;;;16.28;100.00;98485.89;1612238;88;28112;-83
2022/05/05 07:20:51;;;;;;;2.55;2.15;;;;;;;16.28;100.00;98485.41;1612203;88;28194;-83
2022/05/05 07:23:17;;;;;;;3.15;2.33;;;;;;;16.30;100.00;98490.08;1612554;87;28101;-83
2022/05/05 07:25:44;;;;;;;3.05;2.35;;;;;;;16.37;100.00;98485.52;1614357;86;28181;-83
2022/05/05 07:28:12;;;;;;;3.45;2.12;;;;;;;16.45;100.00;98489.13;1613074;86;28074;-83
2022/05/05 07:30:39;;;;;;;3.00;2.30;;;;;;;16.55;100.00;98482.50;1612268;88;28132;-83
2022/05/05 07:33:06;;;;;;;3.30;2.25;;;;;;;16.68;100.00;98490.98;1612383;88;28125;-83
2022/05/05 07:35:33;;;;;;;3.17;2.40;;;;;;;16.77;100.00;98489.27;1612081;88;28038;-83
2022/05/05 07:38:00;;;;;;;4.20;2.80;;;;;;;16.88;100.00;98483.33;1612177;88;28209;-82
2022/05/05 07:40:26;;;;;;;2.98;2.05;;;;;;;16.96;100.00;98486.58;1612073;88;28092;-83
2022/05/05 07:42:54;;;;;;;2.52;2.17;;;;;;;17.05;100.00;98485.20;1616432;86;28018;-83
2022/05/05 07:45:22;;;;;;;2.67;2.20;;;;;;;17.13;100.00;98489.73;1610741;88;28158;-83
2022/05/05 07:47:49;;;;;;;2.83;2.52;;;;;;;17.13;100.00;98490.58;1612282;87;28116;-83
2022/05/05 07:50:16;;;;;;;3.10;2.50;;;;;;;17.16;100.00;98493.42;1639980;85;28121;-83
2022/05/05 07:52:42;;;;;;;3.95;2.87;;;;;;;17.23;100.00;98495.84;1623588;86;28093;-83
2022/05/05 07:55:15;;;;;;;3.55;2.50;;;;;;;17.32;100.00;98495.43;1611818;87;28099;-84
2022/05/05 07:57:47;;;;;;;3.65;2.10;;;;;;;17.39;100.00;98496.02;1664159;85;28109;-84
2022/05/05 08:00:14;;;;;;;;;;;;;;;17.47;100.00;98493.94;1648056;86;28085;-85
2022/05/05 08:02:41;;;;;;;2.10;1.90;;;;;;;17.53;100.00;98494.67;1621124;86;22103;-84
2022/05/05 08:05:11;;;;;;;2.52;2.05;;;;;;;17.61;100.00;98497.94;1634027;87;28096;-85
2022/05/05 08:07:43;;;;;;;3.55;2.60;;;;;;;17.72;100.00;98493.27;1616389;86;28110;-83
2022/05/05 08:10:10;;;;;;;11.15;5.55;;;;;;;17.82;100.00;98495.34;1635057;86;28086;-84
2022/05/05 08:12:36;;;;;;;5.17;4.00;;;;;;;17.89;100.00;98495.58;1635526;86;28111;-84
2022/05/05 08:15:04;;;;;;;3.25;2.45;;;;;;;17.98;100.00;98495.48;1644702;85;28082;-84
2022/05/05 08:17:33;;;;;;;3.70;2.20;;;;;;;18.07;100.00;98498.19;1633416;85;28212;-84
2022/05/05 08:20:01;;;;;;;3.05;2.02;;;;;;;18.10;100.00;98499.23;1634791;86;28078;-84
2022/05/05 08:22:28;;;;;;;2.27;1.85;;;;;;;18.15;100.00;98506.22;1621319;87;28089;-84
2022/05/05 08:30:24;;;;;;;1.82;1.72;;;;;;;18.22;100.00;98506.77;1649076;86;28105;-83
2022/05/05 08:32:52;;;;;;;4.55;2.08;;;;;;;18.22;100.00;98503.31;1618207;87;28085;-83
2022/05/05 08:35:18;;;;;;;2.70;2.00;;;;;;;18.25;100.00;98497.69;1624747;87;28175;-83
2022/05/05 08:37:51;;;;;;;2.50;1.67;;;;;;;18.38;100.00;98499.45;1634894;85;28164;-83
2022/05/05 08:40:18;;;;;;;2.15;1.30;;;;;;;18.49;100.00;98497.88;1653904;85;28099;-83
2022/05/05 08:42:45;;;;;;;2.65;2.00;;;;;;;18.66;100.00;98500.15;1629903;86;28123;-83
2022/05/05 08:45:11;;;;;;;2.92;1.80;;;;;;;18.72;100.00;98503.02;1630197;85;28110;-83
2022/05/05 08:47:42;;;;;;;4.40;2.37;;;;;;;18.80;100.00;98496.45;1645607;86;28090;-83
2022/05/05 08:50:14;;;;;;;2.33;2.08;;;;;;;18.81;99.52;98491.98;1649632;86;28136;-83
2022/05/05 08:52:41;;;;;;;;;;;;;;;18.77;97.79;98493.26;1621013;86;28069;-84
2022/05/05 08:55:11;;;;;;;5.03;2.90;;;;;;;18.75;96.58;98494.77;1633773;85;26074;-84
2022/05/05 08:57:37;;;;;;;5.20;3.90;;;;;;;18.76;95.79;98497.73;1648810;85;28108;-84
2022/05/05 09:00:05;;;;;;;5.22;3.60;;;;;;;18.78;95.03;98490.95;1638428;86;28010;-83
2022/05/05 09:02:31;;;;;;;5.45;3.62;;;;;;;18.80;94.10;98492.96;1631828;86;28188;-83
2022/05/05 09:04:58;;;;;;;3.95;2.87;;;;;;;18.84;93.23;98492.14;1649881;84;28073;-83
2022/05/05 09:07:27;;;;;;;4.62;3.30;;;;;;;18.84;92.50;98490.81;1647301;86;28017;-83
2022/05/05 09:09:54;;;;;;;3.25;2.50;;;;;;;18.90;92.17;98492.84;1610996;87;28010;-84
2022/05/05 09:12:22;;;;;;;4.15;2.60;;;;;;;18.96;91.28;98490.88;1622119;87;28084;-83
2022/05/05 09:14:53;;;;;;;3.77;2.90;;;;;;;19.02;90.71;98492.91;1625805;85;28136;-83
2022/05/05 09:17:24;;;;;;;4.15;2.42;;;;;;;19.14;90.55;98495.62;1631000;87;28115;-83
2022/05/05 09:19:57;;;;;;;2.52;2.10;;;;;;;19.22;90.51;98492.98;1624588;87;28268;-83
2022/05/05 09:22:26;;;;;;;5.35;3.15;;;;;;;19.27;90.19;98492.50;1625704;86;28226;-83
2022/05/05 09:24:56;;;;;;;4.33;2.85;;;;;;;19.32;89.52;98492.35;1647046;85;28011;-83
2022/05/05 09:27:28;;;;;;;7.50;2.75;;;;;;;19.32;88.78;98491.52;1651135;86;28079;-83
2022/05/05 09:30:01;;;;;;;5.35;3.02;;;;;;;19.29;88.08;98492.69;1647797;85;28179;-83
2022/05/05 09:32:29;;;;;;;4.17;2.55;;;;;;;19.36;87.81;98491.06;1632960;86;28110;-83
2022/05/05 09:35:02;;;;;;;3.58;1.72;;;;;;;19.46;87.83;98485.15;1644533;86;28093;-83
2022/05/05 09:37:29;;;;;;;4.20;2.37;;;;;;;19.51;87.34;98486.82;1648903;84;28112;-83
2022/05/05 09:40:00;;;;;;;2.87;1.90;;;;;;;19.52;86.55;98483.67;1652719;84;28082;-84
2022/05/05 09:42:40;;;;;;;3.58;1.90;;;;;;;19.51;85.95;98480.19;1647892;86;28109;-84
2022/05/05 09:45:30;;;;;;;1.95;1.70;;;;;;;19.54;85.56;98477.69;1630928;87;28077;-84
2022/05/05 09:48:03;;;;;;;2.35;1.35;;;;;;;19.62;85.19;98480.37;1648813;86;28086;-83
2022/05/05 09:50:33;;;;;;;1.67;1.30;;;;;;;19.70;84.84;98483.03;1638852;86;28103;-83
2022/05/05 09:58:46;;;;;;;2.00;1.50;;;;;;;19.95;83.37;98479.42;1651113;85;28060;-83
2022/05/05 10:01:21;;;;;;;3.15;1.47;;;;;;;20.03;82.77;98474.09;1648745;84;28071;-84
2022/05/05 10:04:00;;;;;;;1.40;1.30;;;;;;;20.00;81.95;98474.94;1652012;85;28039;-84
2022/05/05 10:06:32;;;;;;;2.25;1.40;;;;;;;19.93;81.17;98468.13;1651739;85;28094;-84
2022/05/05 10:09:12;;;;;;;1.87;1.05;;;;;;;19.99;80.91;98466.13;1627894;87;28146;-83
2022/05/05 10:11:41;;;;;;;1.72;1.17;;;;;;;20.09;80.75;98468.63;1627138;86;28079;-83
2022/05/05 10:14:14;;;;;;;3.75;1.40;;;;;;;20.11;79.76;98463.15;1629494;87;28120;-84
2022/05/05 10:16:43;;;;;;;2.58;1.20;;;;;;;20.13;78.98;98461.97;1630533;87;28103;-84
2022/05/05 10:19:10;;;;;;;2.17;1.40;;;;;;;20.23;78.54;98460.00;1630023;86;28136;-84
2022/05/05 10:22:01;;;;;;;2.65;1.50;;;;;;;20.18;77.49;98458.34;1637146;86;28105;-84
2022/05/05 10:24:34;;;;;;;2.05;1.42;;;;;;;20.22;76.91;98456.17;1659585;86;28142;-84
2022/05/05 10:27:03;;;;;;;3.17;1.42;;;;;;;20.30;76.47;98455.65;1628620;87;28197;-84
2022/05/05 10:29:36;;;;;;;2.98;1.37;;;;;;;20.46;76.52;98456.16;1633401;86;28015;-83
2022/05/05 10:32:11;;;;;;;1.75;1.37;;;;;;;20.57;76.58;98452.31;1639234;86;28017;-84
2022/05/05 10:34:43;;;;;;;1.40;1.25;;;;;;;20.80;76.69;98455.91;1626403;86;28084;-84
2022/05/05 10:37:09;;;;;;;;;;;;;;;20.99;76.35;98447.55;1669118;84;28193;-83
2022/05/05 10:39:42;;;;;;;1.80;1.35;;;;;;;21.09;75.35;98452.16;1658308;86;24708;-84
2022/05/05 10:42:24;;;;;;;1.80;1.40;;;;;;;21.14;74.85;98451.63;1658557;84;28140;-83
2022/05/05 10:45:14;;;;;;;1.40;1.30;;;;;;;21.22;74.16;98452.44;1659002;86;28026;-84
2022/05/05 10:47:58;;;;;;;2.40;1.50;;;;;;;21.36;73.86;98449.56;1659448;86;28179;-84
2022/05/05 10:50:43;;;;;;;2.75;1.72;;;;;;;21.43;73.24;98447.03;1640640;86;28074;-83
2022/05/05 10:53:08;;;;;;;1.50;1.40;;;;;;;21.47;72.66;98444.34;1625469;86;28100;-84
2022/05/05 10:55:45;;;;;;;2.20;1.40;;;;;;;21.61;72.36;98444.90;1639985;86;28158;-84
2022/05/05 10:58:12;;;;;;;2.80;1.70;;;;;;;21.53;71.44;98440.47;1644651;85;28082;-84
2022/05/05 11:00:43;;;;;;;1.70;1.47;;;;;;;21.50;70.49;98446.63;1637815;86;28547;-84
2022/05/05 11:03:15;;;;;;;3.42;1.40;;;;;;;21.52;69.96;98437.48;1611858;88;28143;-84
2022/05/05 11:05:42;;;;;;;1.90;1.60;;;;;;;21.49;69.50;98440.48;1641550;85;28085;-84
2022/05/05 11:08:17;;;;;;;2.70;1.60;;;;;;;21.58;69.59;98442.61;1637082;86;28164;-84
2022/05/05 11:13:43;;;;;;;1.92;1.72;;;;;;;21.54;68.84;98435.98;1647374;86;28165;-83
2022/05/05 11:22:24;;;;;;;2.30;1.82;;;;;;;21.37;66.82;98437.08;1633913;86;28079;-84
2022/05/05 11:24:53;;;;;;;3.92;1.25;;;;;;;21.34;66.42;98433.42;1623385;87;28131;-83
2022/05/05 11:27:24;;;;;;;2.77;1.77;;;;;;;21.34;66.17;98434.25;1654555;86;28160;-84
2022/05/05 11:29:52;;;;;;;1.57;1.47;;;;;;;21.33;65.87;98433.11;1625941;87;28153;-84
2022/05/05 11:32:22;;;;;;;2.20;1.57;;;;;;;21.38;65.88;98436.08;1630681;86;28128;-84
2022/05/05 11:34:48;;;;;;;1.75;1.40;;;;;;;21.44;65.91;98430.05;1641134;86;28082;-84
2022/05/05 11:37:15;;;;;;;2.22;1.70;;;;;;;21.53;65.90;98427.16;1632466;85;28109;-84
2022/05/05 11:39:42;;;;;;;1.75;1.65;;;;;;;21.57;65.57;98427.62;1633612;86;28140;-83
2022/05/05 11:42:10;;;;;;;2.77;1.67;;;;;;;21.41;64.39;98427.73;1629613;86;28073;-83
2022/05/05 11:44:40;;;;;;;4.20;1.70;;;;;;;21.32;63.97;98425.63;1626167;87;28085;-83
2022/05/05 11:47:21;;;;;;;1.70;1.60;;;;;;;21.41;64.22;98426.39;1616858;87;28100;-83
2022/05/05 11:49:53;;;;;;;1.72;1.62;;;;;;;21.48;64.38;98426.03;1637256;85;28094;-83
2022/05/05 11:52:22;;;;;;;3.58;1.87;;;;;;;21.51;64.34;98429.66;1634651;86;28102;-83
2022/05/05 11:54:54;;;;;;;4.10;1.67;;;;;;;21.49;64.18;98421.83;1630611;85;28091;-83
2022/05/05 11:57:33;;;;;;;1.55;1.20;;;;;;;21.49;63.91;98429.02;1621415;88;28033;-83
2022/05/05 12:02:45;;;;;;;4.55;1.90;;;;;;;21.25;63.98;98436.14;1653009;86;28132;-84
2022/05/05 12:05:12;;;;;;;3.87;2.02;;;;;;;20.99;64.94;98436.91;1653534;86;28124;-84
2022/05/05 12:07:43;;;;;;;3.77;2.27;;;;;;;20.73;65.89;98434.48;1651205;85;28101;-84
2022/05/05 12:10:08;;;;;;;6.58;2.35;;;;;;;20.49;67.14;98441.21;1627976;85;28160;-84